sensor_id;sensor_type;location;lat;lon;timestamp;P1;P2;P0
48893;PMS5003;34710;35.798;139.446;2023-03-23T00:00:38;0;0;
48893;PMS5003;34710;35.798;139.446;2023-03-23T00:03:04;0;0;
48893;PMS5003;34710;35.798;139.446;2023-03-23T00:05:29;0;0;
48893;PMS5003;34710;35.798;139.446;2023-03-23T00:07:55;0;0;
48893;PMS5003;34710;35.798;139.446;2023-03-23T00:10:20;0;0;
48893;PMS5003;34710;35.798;139.446;2023-03-23T00:12:45;0;0;
48893;PMS5003;34710;35.798;139.446;2023-03-23T00:15:11;0;0;
48893;PMS5003;34710;35.798;139.446;2023-03-23T00:17:37;0;0;
48893;PMS5003;34710;35.798;139.446;2023-03-23T00:20:02;0;0;
48893;PMS5003;34710;35.798;139.446;2023-03-23T00:22:27;0;0;
48893;PMS5003;34710;35.798;139.446;2023-03-23T00:24:52;0;0;
48893;PMS5003;34710;35.798;139.446;2023-03-23T00:27:17;0;0;
48893;PMS5003;34710;35.798;139.446;2023-03-23T00:29:42;0;0;
48893;PMS5003;34710;35.798;139.446;2023-03-23T00:32:09;0;0;
48893;PMS5003;34710;35.798;139.446;2023-03-23T00:34:34;0;0;
48893;PMS5003;34710;35.798;139.446;2023-03-23T00:36:59;0;0;
48893;PMS5003;34710;35.798;139.446;2023-03-23T00:39:25;0;0;
48893;PMS5003;34710;35.798;139.446;2023-03-23T00:41:50;0;0;
48893;PMS5003;34710;35.798;139.446;2023-03-23T00:44:15;0;0;
48893;PMS5003;34710;35.798;139.446;2023-03-23T00:46:40;0;0;
48893;PMS5003;34710;35.798;139.446;2023-03-23T00:49:06;0;0;
48893;PMS5003;34710;35.798;139.446;2023-03-23T00:51:31;0;0;
48893;PMS5003;34710;35.798;139.446;2023-03-23T00:53:56;0;0;
48893;PMS5003;34710;35.798;139.446;2023-03-23T00:56:24;0;0;
48893;PMS5003;34710;35.798;139.446;2023-03-23T00:58:48;0;0;
48893;PMS5003;34710;35.798;139.446;2023-03-23T01:01:13;0;0;
48893;PMS5003;34710;35.798;139.446;2023-03-23T01:03:38;0;0;
48893;PMS5003;34710;35.798;139.446;2023-03-23T01:06:05;0;0;
48893;PMS5003;34710;35.798;139.446;2023-03-23T01:08:28;0;0;
48893;PMS5003;34710;35.798;139.446;2023-03-23T01:11:00;0;0;
48893;PMS5003;34710;35.798;139.446;2023-03-23T01:13:19;0;0;
48893;PMS5003;34710;35.798;139.446;2023-03-23T01:15:44;0;0;
48893;PMS5003;34710;35.798;139.446;2023-03-23T01:18:10;0;0;
48893;PMS5003;34710;35.798;139.446;2023-03-23T01:20:37;0;0;
48893;PMS5003;34710;35.798;139.446;2023-03-23T01:23:02;0;0;
48893;PMS5003;34710;35.798;139.446;2023-03-23T01:25:26;0;0;
48893;PMS5003;34710;35.798;139.446;2023-03-23T01:27:51;0;0;
48893;PMS5003;34710;35.798;139.446;2023-03-23T01:30:17;0;0;
48893;PMS5003;34710;35.798;139.446;2023-03-23T01:32:42;0;0;
48893;PMS5003;34710;35.798;139.446;2023-03-23T01:35:08;0;0;
48893;PMS5003;34710;35.798;139.446;2023-03-23T01:37:32;0;0;
48893;PMS5003;34710;35.798;139.446;2023-03-23T01:39:58;0;0;
48893;PMS5003;34710;35.798;139.446;2023-03-23T01:42:23;0;0;
48893;PMS5003;34710;35.798;139.446;2023-03-23T01:47:15;0;0;
48893;PMS5003;34710;35.798;139.446;2023-03-23T01:49:41;0;0;
48893;PMS5003;34710;35.798;139.446;2023-03-23T01:52:06;0;0;
48893;PMS5003;34710;35.798;139.446;2023-03-23T01:54:30;0;0;
48893;PMS5003;34710;35.798;139.446;2023-03-23T01:56:57;0;0;
48893;PMS5003;34710;35.798;139.446;2023-03-23T01:59:21;0;0;
48893;PMS5003;34710;35.798;139.446;2023-03-23T02:01:46;0;0;
48893;PMS5003;34710;35.798;139.446;2023-03-23T02:04:11;0;0;
48893;PMS5003;34710;35.798;139.446;2023-03-23T02:06:36;0;0;
48893;PMS5003;34710;35.798;139.446;2023-03-23T02:09:03;0;0;
48893;PMS5003;34710;35.798;139.446;2023-03-23T02:11:28;0;0;
48893;PMS5003;34710;35.798;139.446;2023-03-23T02:13:53;0;0;
48893;PMS5003;34710;35.798;139.446;2023-03-23T02:16:22;0;0;
48893;PMS5003;34710;35.798;139.446;2023-03-23T02:18:48;0;0;
48893;PMS5003;34710;35.798;139.446;2023-03-23T02:23:41;0;0;
48893;PMS5003;34710;35.798;139.446;2023-03-23T02:26:02;0;0;
48893;PMS5003;34710;35.798;139.446;2023-03-23T02:28:28;0;0;
48893;PMS5003;34710;35.798;139.446;2023-03-23T02:35:43;0;0;
48893;PMS5003;34710;35.798;139.446;2023-03-23T02:38:08;0;0;
48893;PMS5003;34710;35.798;139.446;2023-03-23T02:40:33;0;0;
48893;PMS5003;34710;35.798;139.446;2023-03-23T02:42:57;0;0;
48893;PMS5003;34710;35.798;139.446;2023-03-23T02:45:22;0;0;
48893;PMS5003;34710;35.798;139.446;2023-03-23T02:47:48;0;0;
48893;PMS5003;34710;35.798;139.446;2023-03-23T02:50:13;0;0;
48893;PMS5003;34710;35.798;139.446;2023-03-23T02:52:39;0;0;
48893;PMS5003;34710;35.798;139.446;2023-03-23T02:55:06;0;0;
48893;PMS5003;34710;35.798;139.446;2023-03-23T02:57:29;0;0;
48893;PMS5003;34710;35.798;139.446;2023-03-23T02:59:55;0;0;
48893;PMS5003;34710;35.798;139.446;2023-03-23T03:02:21;0;0;
48893;PMS5003;34710;35.798;139.446;2023-03-23T03:04:46;0;0;
48893;PMS5003;34710;35.798;139.446;2023-03-23T03:07:15;0;0;
48893;PMS5003;34710;35.798;139.446;2023-03-23T03:09:38;0;0;
48893;PMS5003;34710;35.798;139.446;2023-03-23T03:12:04;0;0;
48893;PMS5003;34710;35.798;139.446;2023-03-23T03:14:28;0;0;
48893;PMS5003;34710;35.798;139.446;2023-03-23T03:16:53;0;0;
48893;PMS5003;34710;35.798;139.446;2023-03-23T03:19:17;0;0;
48893;PMS5003;34710;35.798;139.446;2023-03-23T03:21:44;0;0;
48893;PMS5003;34710;35.798;139.446;2023-03-23T03:24:08;0;0;
48893;PMS5003;34710;35.798;139.446;2023-03-23T03:26:33;0;0;
48893;PMS5003;34710;35.798;139.446;2023-03-23T03:28:59;0;0;
48893;PMS5003;34710;35.798;139.446;2023-03-23T03:31:30;0;0;
48893;PMS5003;34710;35.798;139.446;2023-03-23T03:33:49;0;0;
48893;PMS5003;34710;35.798;139.446;2023-03-23T03:36:16;0;0;
48893;PMS5003;34710;35.798;139.446;2023-03-23T03:38:41;0;0;
48893;PMS5003;34710;35.798;139.446;2023-03-23T03:41:05;0;0;
48893;PMS5003;34710;35.798;139.446;2023-03-23T03:43:30;0;0;
48893;PMS5003;34710;35.798;139.446;2023-03-23T03:45:56;0;0;
48893;PMS5003;34710;35.798;139.446;2023-03-23T03:48:22;0;0;
48893;PMS5003;34710;35.798;139.446;2023-03-23T03:50:47;0;0;
48893;PMS5003;34710;35.798;139.446;2023-03-23T03:53:12;0;0;
48893;PMS5003;34710;35.798;139.446;2023-03-23T03:55:37;0;0;
48893;PMS5003;34710;35.798;139.446;2023-03-23T03:58:04;0;0;
48893;PMS5003;34710;35.798;139.446;2023-03-23T04:00:27;0;0;
48893;PMS5003;34710;35.798;139.446;2023-03-23T04:02:53;0;0;
48893;PMS5003;34710;35.798;139.446;2023-03-23T04:05:19;0;0;
48893;PMS5003;34710;35.798;139.446;2023-03-23T04:07:44;0;0;
48893;PMS5003;34710;35.798;139.446;2023-03-23T04:10:10;0;0;
48893;PMS5003;34710;35.798;139.446;2023-03-23T04:12:35;0;0;
48893;PMS5003;34710;35.798;139.446;2023-03-23T04:15:00;0;0;
48893;PMS5003;34710;35.798;139.446;2023-03-23T04:17:25;0;0;
48893;PMS5003;34710;35.798;139.446;2023-03-23T04:19:51;0;0;
48893;PMS5003;34710;35.798;139.446;2023-03-23T04:22:16;0;0;
48893;PMS5003;34710;35.798;139.446;2023-03-23T04:24:41;0;0;
48893;PMS5003;34710;35.798;139.446;2023-03-23T04:27:06;0;0;
48893;PMS5003;34710;35.798;139.446;2023-03-23T04:29:31;0;0;
48893;PMS5003;34710;35.798;139.446;2023-03-23T04:31:57;0;0;
48893;PMS5003;34710;35.798;139.446;2023-03-23T04:34:23;0;0;
48893;PMS5003;34710;35.798;139.446;2023-03-23T04:36:49;0;0;
48893;PMS5003;34710;35.798;139.446;2023-03-23T04:39:14;0;0;
48893;PMS5003;34710;35.798;139.446;2023-03-23T04:41:39;0;0;
48893;PMS5003;34710;35.798;139.446;2023-03-23T04:44:04;0;0;
48893;PMS5003;34710;35.798;139.446;2023-03-23T04:46:30;0;0;
48893;PMS5003;34710;35.798;139.446;2023-03-23T04:48:54;0;0;
48893;PMS5003;34710;35.798;139.446;2023-03-23T04:51:20;0;0;
48893;PMS5003;34710;35.798;139.446;2023-03-23T04:53:46;0;0;
48893;PMS5003;34710;35.798;139.446;2023-03-23T04:56:10;0;0;
48893;PMS5003;34710;35.798;139.446;2023-03-23T04:58:37;0;0;
48893;PMS5003;34710;35.798;139.446;2023-03-23T05:01:02;0;0;
48893;PMS5003;34710;35.798;139.446;2023-03-23T05:03:27;0;0;
48893;PMS5003;34710;35.798;139.446;2023-03-23T05:05:53;0;0;
48893;PMS5003;34710;35.798;139.446;2023-03-23T05:08:18;0;0;
48893;PMS5003;34710;35.798;139.446;2023-03-23T05:10:44;0;0;
48893;PMS5003;34710;35.798;139.446;2023-03-23T05:13:08;0;0;
48893;PMS5003;34710;35.798;139.446;2023-03-23T05:15:33;0;0;
48893;PMS5003;34710;35.798;139.446;2023-03-23T05:17:58;0;0;
48893;PMS5003;34710;35.798;139.446;2023-03-23T05:20:24;0;0;
48893;PMS5003;34710;35.798;139.446;2023-03-23T05:22:50;0;0;
48893;PMS5003;34710;35.798;139.446;2023-03-23T05:25:16;0;0;
48893;PMS5003;34710;35.798;139.446;2023-03-23T05:27:41;0;0;
48893;PMS5003;34710;35.798;139.446;2023-03-23T05:30:06;0;0;
48893;PMS5003;34710;35.798;139.446;2023-03-23T05:32:31;0;0;
48893;PMS5003;34710;35.798;139.446;2023-03-23T05:34:56;0;0;
48893;PMS5003;34710;35.798;139.446;2023-03-23T05:37:22;0;0;
48893;PMS5003;34710;35.798;139.446;2023-03-23T05:39:46;0;0;
48893;PMS5003;34710;35.798;139.446;2023-03-23T05:42:12;0;0;
48893;PMS5003;34710;35.798;139.446;2023-03-23T05:44:37;0;0;
48893;PMS5003;34710;35.798;139.446;2023-03-23T05:47:03;0;0;
48893;PMS5003;34710;35.798;139.446;2023-03-23T05:49:29;0;0;
48893;PMS5003;34710;35.798;139.446;2023-03-23T05:51:54;0;0;
48893;PMS5003;34710;35.798;139.446;2023-03-23T05:54:19;0;0;
48893;PMS5003;34710;35.798;139.446;2023-03-23T05:56:44;0;0;
48893;PMS5003;34710;35.798;139.446;2023-03-23T05:59:10;0;0;
48893;PMS5003;34710;35.798;139.446;2023-03-23T06:01:35;0;0;
48893;PMS5003;34710;35.798;139.446;2023-03-23T06:04:00;0;0;
48893;PMS5003;34710;35.798;139.446;2023-03-23T06:06:25;0;0;
48893;PMS5003;34710;35.798;139.446;2023-03-23T06:08:51;0;0;
48893;PMS5003;34710;35.798;139.446;2023-03-23T06:11:17;0;0;
48893;PMS5003;34710;35.798;139.446;2023-03-23T06:13:42;0;0;
48893;PMS5003;34710;35.798;139.446;2023-03-23T06:16:08;0;0;
48893;PMS5003;34710;35.798;139.446;2023-03-23T06:18:32;0;0;
48893;PMS5003;34710;35.798;139.446;2023-03-23T06:20:58;0;0;
48893;PMS5003;34710;35.798;139.446;2023-03-23T06:23:23;0;0;
48893;PMS5003;34710;35.798;139.446;2023-03-23T06:25:48;0;0;
48893;PMS5003;34710;35.798;139.446;2023-03-23T06:28:13;0;0;
48893;PMS5003;34710;35.798;139.446;2023-03-23T06:30:39;0;0;
48893;PMS5003;34710;35.798;139.446;2023-03-23T06:33:04;0;0;
48893;PMS5003;34710;35.798;139.446;2023-03-23T06:35:31;0;0;
48893;PMS5003;34710;35.798;139.446;2023-03-23T06:37:55;0;0;
48893;PMS5003;34710;35.798;139.446;2023-03-23T06:40:21;0;0;
48893;PMS5003;34710;35.798;139.446;2023-03-23T06:42:46;0;0;
48893;PMS5003;34710;35.798;139.446;2023-03-23T06:45:11;0;0;
48893;PMS5003;34710;35.798;139.446;2023-03-23T06:47:36;0;0;
48893;PMS5003;34710;35.798;139.446;2023-03-23T06:50:02;0;0;
48893;PMS5003;34710;35.798;139.446;2023-03-23T06:52:27;0;0;
48893;PMS5003;34710;35.798;139.446;2023-03-23T06:54:52;0;0;
48893;PMS5003;34710;35.798;139.446;2023-03-23T06:57:18;0;0;
48893;PMS5003;34710;35.798;139.446;2023-03-23T06:59:44;0;0;
48893;PMS5003;34710;35.798;139.446;2023-03-23T07:02:09;0;0;
48893;PMS5003;34710;35.798;139.446;2023-03-23T07:04:34;0;0;
48893;PMS5003;34710;35.798;139.446;2023-03-23T07:07:00;0;0;
48893;PMS5003;34710;35.798;139.446;2023-03-23T07:09:24;0;0;
48893;PMS5003;34710;35.798;139.446;2023-03-23T07:11:51;0;0;
48893;PMS5003;34710;35.798;139.446;2023-03-23T07:14:15;0;0;
48893;PMS5003;34710;35.798;139.446;2023-03-23T07:16:40;0;0;
48893;PMS5003;34710;35.798;139.446;2023-03-23T07:19:06;0;0;
48893;PMS5003;34710;35.798;139.446;2023-03-23T07:21:31;0;0;
48893;PMS5003;34710;35.798;139.446;2023-03-23T07:23:57;0;0;
48893;PMS5003;34710;35.798;139.446;2023-03-23T07:26:23;0;0;
48893;PMS5003;34710;35.798;139.446;2023-03-23T07:28:48;0;0;
48893;PMS5003;34710;35.798;139.446;2023-03-23T07:31:13;0;0;
48893;PMS5003;34710;35.798;139.446;2023-03-23T07:33:38;0;0;
48893;PMS5003;34710;35.798;139.446;2023-03-23T07:36:04;0;0;
48893;PMS5003;34710;35.798;139.446;2023-03-23T07:38:28;0;0;
48893;PMS5003;34710;35.798;139.446;2023-03-23T07:40:54;0;0;
48893;PMS5003;34710;35.798;139.446;2023-03-23T07:43:19;0;0;
48893;PMS5003;34710;35.798;139.446;2023-03-23T07:45:44;0;0;
48893;PMS5003;34710;35.798;139.446;2023-03-23T07:48:11;0;0;
48893;PMS5003;34710;35.798;139.446;2023-03-23T07:50:36;0;0;
48893;PMS5003;34710;35.798;139.446;2023-03-23T07:53:01;0;0;
48893;PMS5003;34710;35.798;139.446;2023-03-23T07:55:26;0;0;
48893;PMS5003;34710;35.798;139.446;2023-03-23T07:57:52;0;0;
48893;PMS5003;34710;35.798;139.446;2023-03-23T08:00:18;0;0;
48893;PMS5003;34710;35.798;139.446;2023-03-23T08:02:42;0;0;
48893;PMS5003;34710;35.798;139.446;2023-03-23T08:05:08;0;0;
48893;PMS5003;34710;35.798;139.446;2023-03-23T08:07:32;0;0;
48893;PMS5003;34710;35.798;139.446;2023-03-23T08:09:58;0;0;
48893;PMS5003;34710;35.798;139.446;2023-03-23T08:12:24;0;0;
48893;PMS5003;34710;35.798;139.446;2023-03-23T08:14:50;0;0;
48893;PMS5003;34710;35.798;139.446;2023-03-23T08:17:15;0;0;
48893;PMS5003;34710;35.798;139.446;2023-03-23T08:19:40;0;0;
48893;PMS5003;34710;35.798;139.446;2023-03-23T08:22:05;0;0;
48893;PMS5003;34710;35.798;139.446;2023-03-23T08:24:30;0;0;
48893;PMS5003;34710;35.798;139.446;2023-03-23T08:26:56;0;0;
48893;PMS5003;34710;35.798;139.446;2023-03-23T08:29:21;0;0;
48893;PMS5003;34710;35.798;139.446;2023-03-23T08:31:46;0;0;
48893;PMS5003;34710;35.798;139.446;2023-03-23T08:34:11;0;0;
48893;PMS5003;34710;35.798;139.446;2023-03-23T08:36:38;0;0;
48893;PMS5003;34710;35.798;139.446;2023-03-23T08:39:03;0;0;
48893;PMS5003;34710;35.798;139.446;2023-03-23T08:41:28;0;0;
48893;PMS5003;34710;35.798;139.446;2023-03-23T08:43:53;0;0;
48893;PMS5003;34710;35.798;139.446;2023-03-23T08:46:19;0;0;
48893;PMS5003;34710;35.798;139.446;2023-03-23T08:48:44;0;0;
48893;PMS5003;34710;35.798;139.446;2023-03-23T08:51:09;0;0;
48893;PMS5003;34710;35.798;139.446;2023-03-23T08:53:34;0;0;
48893;PMS5003;34710;35.798;139.446;2023-03-23T08:56:03;0;0;
48893;PMS5003;34710;35.798;139.446;2023-03-23T08:58:25;0;0;
48893;PMS5003;34710;35.798;139.446;2023-03-23T09:00:51;0;0;
48893;PMS5003;34710;35.798;139.446;2023-03-23T09:03:16;0;0;
48893;PMS5003;34710;35.798;139.446;2023-03-23T09:05:41;0;0;
48893;PMS5003;34710;35.798;139.446;2023-03-23T09:08:07;0;0;
48893;PMS5003;34710;35.798;139.446;2023-03-23T09:10:32;0;0;
48893;PMS5003;34710;35.798;139.446;2023-03-23T09:12:57;0;0;
48893;PMS5003;34710;35.798;139.446;2023-03-23T09:15:22;0;0;
48893;PMS5003;34710;35.798;139.446;2023-03-23T09:17:48;0;0;
48893;PMS5003;34710;35.798;139.446;2023-03-23T09:20:13;0;0;
48893;PMS5003;34710;35.798;139.446;2023-03-23T09:22:38;0;0;
48893;PMS5003;34710;35.798;139.446;2023-03-23T09:25:05;0;0;
48893;PMS5003;34710;35.798;139.446;2023-03-23T09:27:29;0;0;
48893;PMS5003;34710;35.798;139.446;2023-03-23T09:29:55;0;0;
48893;PMS5003;34710;35.798;139.446;2023-03-23T09:32:20;0;0;
48893;PMS5003;34710;35.798;139.446;2023-03-23T09:34:45;0;0;
48893;PMS5003;34710;35.798;139.446;2023-03-23T09:37:10;0;0;
48893;PMS5003;34710;35.798;139.446;2023-03-23T09:39:36;0;0;
48893;PMS5003;34710;35.798;139.446;2023-03-23T09:42:07;0;0;
48893;PMS5003;34710;35.798;139.446;2023-03-23T09:44:29;0;0;
48893;PMS5003;34710;35.798;139.446;2023-03-23T09:46:55;0;0;
48893;PMS5003;34710;35.798;139.446;2023-03-23T09:49:18;0;0;
48893;PMS5003;34710;35.798;139.446;2023-03-23T09:51:44;0;0;
48893;PMS5003;34710;35.798;139.446;2023-03-23T09:54:10;0;0;
48893;PMS5003;34710;35.798;139.446;2023-03-23T09:56:34;0;0;
48893;PMS5003;34710;35.798;139.446;2023-03-23T09:58:59;0;0;
48893;PMS5003;34710;35.798;139.446;2023-03-23T10:01:25;0;0;
48893;PMS5003;34710;35.798;139.446;2023-03-23T10:03:49;0;0;
48893;PMS5003;34710;35.798;139.446;2023-03-23T10:06:15;0;0;
48893;PMS5003;34710;35.798;139.446;2023-03-23T10:08:43;0;0;
48893;PMS5003;34710;35.798;139.446;2023-03-23T10:11:07;0;0;
48893;PMS5003;34710;35.798;139.446;2023-03-23T10:13:36;0;0;
48893;PMS5003;34710;35.798;139.446;2023-03-23T10:15:57;0;0;
48893;PMS5003;34710;35.798;139.446;2023-03-23T10:18:24;0;0;
48893;PMS5003;34710;35.798;139.446;2023-03-23T10:20:48;0;0;
48893;PMS5003;34710;35.798;139.446;2023-03-23T10:23:14;0;0;
48893;PMS5003;34710;35.798;139.446;2023-03-23T10:25:39;0;0;
48893;PMS5003;34710;35.798;139.446;2023-03-23T10:28:04;0;0;
48893;PMS5003;34710;35.798;139.446;2023-03-23T10:30:29;0;0;
48893;PMS5003;34710;35.798;139.446;2023-03-23T10:32:55;0;0;
48893;PMS5003;34710;35.798;139.446;2023-03-23T10:35:19;0;0;
48893;PMS5003;34710;35.798;139.446;2023-03-23T10:37:46;0;0;
48893;PMS5003;34710;35.798;139.446;2023-03-23T10:40:12;0;0;
48893;PMS5003;34710;35.798;139.446;2023-03-23T10:42:36;0;0;
48893;PMS5003;34710;35.798;139.446;2023-03-23T10:45:11;0;0;
48893;PMS5003;34710;35.798;139.446;2023-03-23T10:47:26;0;0;
48893;PMS5003;34710;35.798;139.446;2023-03-23T10:49:53;0;0;
48893;PMS5003;34710;35.798;139.446;2023-03-23T10:59:32;0;0;
48893;PMS5003;34710;35.798;139.446;2023-03-23T11:02:00;0;0;
48893;PMS5003;34710;35.798;139.446;2023-03-23T11:04:23;0;0;
48893;PMS5003;34710;35.798;139.446;2023-03-23T11:06:50;0;0;
48893;PMS5003;34710;35.798;139.446;2023-03-23T11:09:14;0;0;
48893;PMS5003;34710;35.798;139.446;2023-03-23T11:11:39;0;0;
48893;PMS5003;34710;35.798;139.446;2023-03-23T11:16:30;0;0;
48893;PMS5003;34710;35.798;139.446;2023-03-23T11:18:55;0;0;
48893;PMS5003;34710;35.798;139.446;2023-03-23T11:21:20;0;0;
48893;PMS5003;34710;35.798;139.446;2023-03-23T11:23:48;0;0;
48893;PMS5003;34710;35.798;139.446;2023-03-23T11:26:13;0;0;
48893;PMS5003;34710;35.798;139.446;2023-03-23T11:28:38;0;0;
48893;PMS5003;34710;35.798;139.446;2023-03-23T11:31:03;0;0;
48893;PMS5003;34710;35.798;139.446;2023-03-23T11:33:29;0;0;
48893;PMS5003;34710;35.798;139.446;2023-03-23T11:35:53;0;0;
48893;PMS5003;34710;35.798;139.446;2023-03-23T11:38:18;0;0;
48893;PMS5003;34710;35.798;139.446;2023-03-23T11:40:44;0;0;
48893;PMS5003;34710;35.798;139.446;2023-03-23T11:43:09;0;0;
48893;PMS5003;34710;35.798;139.446;2023-03-23T11:45:34;0;0;
48893;PMS5003;34710;35.798;139.446;2023-03-23T11:48:01;0;0;
48893;PMS5003;34710;35.798;139.446;2023-03-23T11:50:25;0;0;
48893;PMS5003;34710;35.798;139.446;2023-03-23T11:52:51;0;0;
48893;PMS5003;34710;35.798;139.446;2023-03-23T11:55:17;0;0;
48893;PMS5003;34710;35.798;139.446;2023-03-23T11:57:41;0;0;
48893;PMS5003;34710;35.798;139.446;2023-03-23T12:02:35;0;0;
48893;PMS5003;34710;35.798;139.446;2023-03-23T12:05:00;0;0;
48893;PMS5003;34710;35.798;139.446;2023-03-23T12:08:10;26;26;
48893;PMS5003;34710;35.798;139.446;2023-03-23T12:10:33;31;26;
48893;PMS5003;34710;35.798;139.446;2023-03-23T12:13:00;38;24;
48893;PMS5003;34710;35.798;139.446;2023-03-23T12:15:24;30;26;
48893;PMS5003;34710;35.798;139.446;2023-03-23T12:17:49;37;23;
48893;PMS5003;34710;35.798;139.446;2023-03-23T12:20:17;29;27;
48893;PMS5003;34710;35.798;139.446;2023-03-23T12:22:42;34;22;
48893;PMS5003;34710;35.798;139.446;2023-03-23T12:25:09;31;26;
48893;PMS5003;34710;35.798;139.446;2023-03-23T12:27:30;35;30;
48893;PMS5003;34710;35.798;139.446;2023-03-23T12:29:58;39;26;
48893;PMS5003;34710;35.798;139.446;2023-03-23T12:32:28;42;29;
48893;PMS5003;34710;35.798;139.446;2023-03-23T12:34:46;42;34;
48893;PMS5003;34710;35.798;139.446;2023-03-23T12:37:15;34;31;
48893;PMS5003;34710;35.798;139.446;2023-03-23T12:39:41;32;31;
48893;PMS5003;34710;35.798;139.446;2023-03-23T12:42:02;38;24;
48893;PMS5003;34710;35.798;139.446;2023-03-23T12:44:28;34;28;
48893;PMS5003;34710;35.798;139.446;2023-03-23T12:46:57;32;29;
48893;PMS5003;34710;35.798;139.446;2023-03-23T12:49:18;35;26;
48893;PMS5003;34710;35.798;139.446;2023-03-23T12:51:43;25;22;
48893;PMS5003;34710;35.798;139.446;2023-03-23T12:54:09;31;26;
48893;PMS5003;34710;35.798;139.446;2023-03-23T12:56:33;26;26;
48893;PMS5003;34710;35.798;139.446;2023-03-23T12:59:01;35;28;
48893;PMS5003;34710;35.798;139.446;2023-03-23T13:01:24;32;28;
48893;PMS5003;34710;35.798;139.446;2023-03-23T13:03:51;43;25;
48893;PMS5003;34710;35.798;139.446;2023-03-23T13:06:15;35;24;
48893;PMS5003;34710;35.798;139.446;2023-03-23T13:08:42;21;21;
48893;PMS5003;34710;35.798;139.446;2023-03-23T13:11:08;30;28;
48893;PMS5003;34710;35.798;139.446;2023-03-23T13:16:00;27;23;
48893;PMS5003;34710;35.798;139.446;2023-03-23T13:18:25;31;23;
48893;PMS5003;34710;35.798;139.446;2023-03-23T13:20:50;25;22;
48893;PMS5003;34710;35.798;139.446;2023-03-23T13:23:14;42;27;
48893;PMS5003;34710;35.798;139.446;2023-03-23T13:25:41;29;27;
48893;PMS5003;34710;35.798;139.446;2023-03-23T13:28:03;32;29;
48893;PMS5003;34710;35.798;139.446;2023-03-23T13:30:29;41;29;
48893;PMS5003;34710;35.798;139.446;2023-03-23T13:35:20;35;28;
48893;PMS5003;34710;35.798;139.446;2023-03-23T13:37:46;32;29;
48893;PMS5003;34710;35.798;139.446;2023-03-23T13:40:16;47;32;
48893;PMS5003;34710;35.798;139.446;2023-03-23T13:42:36;35;32;
48893;PMS5003;34710;35.798;139.446;2023-03-23T13:45:17;46;34;
48893;PMS5003;34710;35.798;139.446;2023-03-23T13:47:28;39;34;
48893;PMS5003;34710;35.798;139.446;2023-03-23T13:49:53;31;30;
48893;PMS5003;34710;35.798;139.446;2023-03-23T13:52:23;27;25;
48893;PMS5003;34710;35.798;139.446;2023-03-23T13:54:44;24;22;
48893;PMS5003;34710;35.798;139.446;2023-03-23T13:59:35;17;16;
48893;PMS5003;34710;35.798;139.446;2023-03-23T14:04:30;11;10;
48893;PMS5003;34710;35.798;139.446;2023-03-23T14:06:51;14;12;
48893;PMS5003;34710;35.798;139.446;2023-03-23T14:09:17;14;12;
48893;PMS5003;34710;35.798;139.446;2023-03-23T14:11:48;15;14;
48893;PMS5003;34710;35.798;139.446;2023-03-23T14:14:07;13;13;
48893;PMS5003;34710;35.798;139.446;2023-03-23T14:16:34;14;14;
48893;PMS5003;34710;35.798;139.446;2023-03-23T14:18:58;16;14;
48893;PMS5003;34710;35.798;139.446;2023-03-23T14:21:24;16;14;
48893;PMS5003;34710;35.798;139.446;2023-03-23T14:23:48;12;11;
48893;PMS5003;34710;35.798;139.446;2023-03-23T14:26:15;14;14;
48893;PMS5003;34710;35.798;139.446;2023-03-23T14:28:39;14;12;
48893;PMS5003;34710;35.798;139.446;2023-03-23T14:31:03;12;12;
48893;PMS5003;34710;35.798;139.446;2023-03-23T14:33:28;17;12;
48893;PMS5003;34710;35.798;139.446;2023-03-23T14:35:56;13;12;
48893;PMS5003;34710;35.798;139.446;2023-03-23T14:38:20;13;13;
48893;PMS5003;34710;35.798;139.446;2023-03-23T14:40:45;17;12;
48893;PMS5003;34710;35.798;139.446;2023-03-23T14:43:10;12;12;
48893;PMS5003;34710;35.798;139.446;2023-03-23T14:45:35;14;14;
48893;PMS5003;34710;35.798;139.446;2023-03-23T14:48:00;17;17;
48893;PMS5003;34710;35.798;139.446;2023-03-23T14:50:27;17;16;
48893;PMS5003;34710;35.798;139.446;2023-03-23T14:52:50;20;20;
48893;PMS5003;34710;35.798;139.446;2023-03-23T14:55:17;19;18;
48893;PMS5003;34710;35.798;139.446;2023-03-23T14:57:41;23;20;
48893;PMS5003;34710;35.798;139.446;2023-03-23T15:00:10;20;20;
48893;PMS5003;34710;35.798;139.446;2023-03-23T15:02:33;26;22;
48893;PMS5003;34710;35.798;139.446;2023-03-23T15:04:59;39;23;
48893;PMS5003;34710;35.798;139.446;2023-03-23T15:07:23;24;23;
48893;PMS5003;34710;35.798;139.446;2023-03-23T15:09:49;24;22;
48893;PMS5003;34710;35.798;139.446;2023-03-23T15:12:18;18;17;
48893;PMS5003;34710;35.798;139.446;2023-03-23T15:14:43;20;20;
48893;PMS5003;34710;35.798;139.446;2023-03-23T15:17:04;24;18;
48893;PMS5003;34710;35.798;139.446;2023-03-23T15:19:32;25;21;
48893;PMS5003;34710;35.798;139.446;2023-03-23T15:21:56;18;18;
48893;PMS5003;34710;35.798;139.446;2023-03-23T15:24:26;22;21;
48893;PMS5003;34710;35.798;139.446;2023-03-23T15:26:46;19;19;
48893;PMS5003;34710;35.798;139.446;2023-03-23T15:29:13;22;21;
48893;PMS5003;34710;35.798;139.446;2023-03-23T15:31:39;22;20;
48893;PMS5003;34710;35.798;139.446;2023-03-23T15:34:02;22;18;
48893;PMS5003;34710;35.798;139.446;2023-03-23T15:36:30;16;16;
48893;PMS5003;34710;35.798;139.446;2023-03-23T15:38:53;20;18;
48893;PMS5003;34710;35.798;139.446;2023-03-23T15:41:22;25;20;
48893;PMS5003;34710;35.798;139.446;2023-03-23T15:43:49;16;15;
48893;PMS5003;34710;35.798;139.446;2023-03-23T15:48:45;19;15;
48893;PMS5003;34710;35.798;139.446;2023-03-23T15:51:01;20;20;
48893;PMS5003;34710;35.798;139.446;2023-03-23T15:53:26;19;15;
48893;PMS5003;34710;35.798;139.446;2023-03-23T15:55:49;23;21;
48893;PMS5003;34710;35.798;139.446;2023-03-23T15:58:14;20;18;
48893;PMS5003;34710;35.798;139.446;2023-03-23T16:00:41;27;21;
48893;PMS5003;34710;35.798;139.446;2023-03-23T16:03:08;30;18;
48893;PMS5003;34710;35.798;139.446;2023-03-23T16:05:31;20;19;
48893;PMS5003;34710;35.798;139.446;2023-03-23T16:07:56;25;21;
48893;PMS5003;34710;35.798;139.446;2023-03-23T16:10:22;27;21;
48893;PMS5003;34710;35.798;139.446;2023-03-23T16:12:47;27;20;
48893;PMS5003;34710;35.798;139.446;2023-03-23T16:15:13;18;18;
48893;PMS5003;34710;35.798;139.446;2023-03-23T16:17:38;19;19;
48893;PMS5003;34710;35.798;139.446;2023-03-23T16:22:29;19;18;
48893;PMS5003;34710;35.798;139.446;2023-03-23T16:24:55;16;16;
48893;PMS5003;34710;35.798;139.446;2023-03-23T16:27:20;20;17;
48893;PMS5003;34710;35.798;139.446;2023-03-23T16:29:45;16;15;
48893;PMS5003;34710;35.798;139.446;2023-03-23T16:32:11;21;16;